Tombarra — MPRD6 — position and weather

sailwx.info

Track history (hours):
 
Tides and Currents Weather Stations Pressure Air Temp Water Temp Dewpoint Dewpoint Depression Visibility Wind Speed Wind Dir Waves Ship Positions

Tombarra

Last reported at 2016-Jul-23 17:17 UTC. Time now 2016-Jul-28 08:37 UTC.
Position N 48°32' W 126°52'.

Length 199 m; draft 8.8 m.

Type: Cargo ship. MMSI: 232971000.

Date/timePositionNaut miles runAvg speedWind from/ knotsBaromVisibWave heightAir tempDewpointWater temp
2016-Jul-23 17:17N 48°32' W 126°52'1115.2
2016-Jul-23 16:33N 48°32' W 126°35'1616.1
2016-Jul-23 15:33N 48°32' W 126°11'1616.1
2016-Jul-23 14:33N 48°32' W 125°47'1615.8
2016-Jul-23 13:34N 48°32' W 125°23'1414.1
2016-Jul-23 12:33N 48°32' W 125°02'1414.5
2016-Jul-23 11:34N 48°30' W 124°40'1514.5
2016-Jul-23 10:34N 48°24' W 124°20'1514.7
2016-Jul-23 09:33N 48°18' W 123°59'1515.1
2016-Jul-23 08:33N 48°15' W 123°37'1313.0
2016-Jul-23 07:34N 48°09' W 123°20'4414.8
2016-Jul-23 04:34N 47°43' W 122°26'1514.8
2016-Jul-23 03:34N 47°28' W 122°24'1111.2
2016-Jul-23 02:33N 47°17' W 122°25'2 1.9
2016-Jul-23 01:29N 47°16' W 122°23'0 0.0
2016-Jul-23 00:32N 47°16' W 122°23'0 0.0
2016-Jul-22 23:32N 47°16' W 122°23'0 0.0
2016-Jul-22 22:20N 47°16' W 122°23'0 0.0
2016-Jul-22 21:32N 47°16' W 122°23'0 0.0
2016-Jul-22 20:29N 47°16' W 122°23'0 0.0
2016-Jul-22 19:32N 47°16' W 122°23'0 0.0
2016-Jul-22 18:32N 47°16' W 122°23'0 0.0
2016-Jul-22 17:32N 47°16' W 122°23'0 0.0
2016-Jul-22 16:32N 47°16' W 122°23'0 0.0
2016-Jul-22 15:32N 47°16' W 122°23'0 0.0
2016-Jul-22 14:32N 47°16' W 122°23'0 0.2
2016-Jul-22 13:33N 47°16' W 122°23'5 4.6
2016-Jul-22 12:33N 47°18' W 122°28'1312.9
2016-Jul-22 11:34N 47°31' W 122°26'1716.8
2016-Jul-22 10:34N 47°48' W 122°27'1717.1
2016-Jul-22 09:34N 48°03' W 122°39'1716.8
2016-Jul-22 08:33N 48°12' W 123°01'1615.8
2016-Jul-22 07:33N 48°10' W 123°24'19 9.6
2016-Jul-22 05:33N 48°13' W 123°53'1313.3
2016-Jul-22 04:33N 48°18' W 124°11'1413.6
2016-Jul-22 03:33N 48°24' W 124°30'1413.6
2016-Jul-22 02:33N 48°28' W 124°49'1211.8
2016-Jul-22 01:32N 48°21' W 125°04'1212.6
2016-Jul-22 00:33N 48°10' W 125°10'1514.6
2016-Jul-21 23:33N 47°56' W 125°17'1414.4
2016-Jul-21 22:33N 47°42' W 125°20'1514.7
2016-Jul-21 21:32N 47°27' W 125°20'1514.7
2016-Jul-21 20:32N 47°12' W 125°20'1515.1
2016-Jul-21 19:33N 46°57' W 125°20'1515.2
2016-Jul-21 18:33N 46°42' W 125°20'1515.0
2016-Jul-21 17:33N 46°27' W 125°20'1515.0
2016-Jul-21 16:33N 46°12' W 125°20'1615.9
2016-Jul-21 15:33N 45°56' W 125°19'1616.0
2016-Jul-21 14:32N 45°40' W 125°20'1715.0
2016-Jul-21 13:23N 45°22' W 125°20'1315.3
2016-Jul-21 12:33N 45°10' W 125°20'1615.4
2016-Jul-21 11:33N 44°54' W 125°20'1515.3
2016-Jul-21 10:33N 44°39' W 125°20'1615.5
2016-Jul-21 09:33N 44°23' W 125°20'1615.6
2016-Jul-21 08:33N 44°08' W 125°20'1615.7
2016-Jul-21 07:34N 43°52' W 125°20'1715.5
2016-Jul-21 06:28N 43°35' W 125°20'3215.1
2016-Jul-21 04:22N 43°03' W 125°20'22115.6
2016-Jul-20 14:12N 39°23' W 124°54'3316.1
2016-Jul-20 12:09N 38°51' W 124°41'1016.1
2016-Jul-20 11:31N 38°42' W 124°37'1516.2
2016-Jul-20 10:33N 38°27' W 124°31'1616.4
2016-Jul-20 09:34N 38°11' W 124°25'1616.0
2016-Jul-20 08:33N 37°57' W 124°17'1616.0
2016-Jul-20 07:33N 37°44' W 124°04'1716.6
2016-Jul-20 06:34N 37°31' W 123°51'3316.3
2016-Jul-20 04:33N 37°05' W 123°25'1616.3
2016-Jul-20 03:33N 36°53' W 123°13'1615.6
2016-Jul-20 02:33N 36°40' W 123°01'1616.3
2016-Jul-20 01:33N 36°27' W 122°49'1616.1
2016-Jul-20 00:33N 36°15' W 122°36'1616.0
2016-Jul-19 23:33N 36°02' W 122°24'1615.7
2016-Jul-19 22:33N 35°50' W 122°12'1615.9
2016-Jul-19 21:33N 35°37' W 121°60'1615.7
2016-Jul-19 20:33N 35°25' W 121°48'1615.7
2016-Jul-19 19:33N 35°12' W 121°36'1615.9
2016-Jul-19 18:32N 34°60' W 121°24'1816.0
2016-Jul-19 17:26N 34°46' W 121°11'2915.3
2016-Jul-19 15:31N 34°25' W 120°46'1715.9
2016-Jul-19 14:27N 34°20' W 120°26'1516.3
2016-Jul-19 13:33N 34°17' W 120°09'1616.1
2016-Jul-19 12:33N 34°12' W 119°50'1515.4
2016-Jul-19 11:33N 34°08' W 119°32'1414.3
2016-Jul-19 10:33N 34°07' W 119°15'3 2.9
2016-Jul-19 09:31N 34°09' W 119°12'0 0.0
2016-Jul-19 08:31N 34°09' W 119°12'0 0.0
2016-Jul-19 07:31N 34°09' W 119°12'0 0.0
2016-Jul-19 04:31N 34°09' W 119°12'0 0.0
2016-Jul-19 03:31N 34°09' W 119°12'0 0.0
2016-Jul-19 02:31N 34°09' W 119°12'0 0.0
2016-Jul-19 01:31N 34°09' W 119°12'0 0.0
2016-Jul-19 00:31N 34°09' W 119°12'0 0.0
2016-Jul-18 23:33N 34°09' W 119°12'5 5.0
2016-Jul-18 22:33N 34°04' W 119°12'9 9.3
2016-Jul-18 21:33N 33°58' W 119°04'1512.1
2016-Jul-18 20:19N 33°44' W 118°55'1115.1
2016-Jul-18 19:34N 33°35' W 118°48'1514.8
2016-Jul-18 18:33N 33°22' W 118°39'1514.8
2016-Jul-18 17:33N 33°12' W 118°26'1515.0
2016-Jul-18 16:33N 33°02' W 118°12'1514.9
2016-Jul-18 15:34N 32°53' W 117°59'1514.9
2016-Jul-18 14:33N 32°44' W 117°45'1514.8
2016-Jul-18 13:33N 32°32' W 117°34'1616.1
2016-Jul-18 12:33N 32°16' W 117°28'1616.1
2016-Jul-18 11:32N 32°01' W 117°23'1615.9
2016-Jul-18 10:33N 31°46' W 117°18'1615.8
2016-Jul-18 09:34N 31°31' W 117°13'1413.8
2016-Jul-18 08:32N 31°17' W 117°08'1414.0
2016-Jul-18 07:33N 31°04' W 117°04'1717.1
2016-Jul-18 06:33N 30°47' W 116°59'1717.2
2016-Jul-18 05:33N 30°31' W 116°53'1717.5
2016-Jul-18 04:33N 30°14' W 116°47'3917.5
2016-Jul-18 02:20N 29°37' W 116°35'1417.4
2016-Jul-18 01:33N 29°23' W 116°31'1817.7
2016-Jul-18 00:33N 29°06' W 116°26'1817.9
2016-Jul-17 23:33N 28°49' W 116°19'1818.1
2016-Jul-17 22:33N 28°32' W 116°12'1817.8
2016-Jul-17 21:33N 28°15' W 116°06'1717.3
2016-Jul-17 20:34N 27°59' W 115°59'1717.4
2016-Jul-17 19:33N 27°45' W 115°48'1717.2
2016-Jul-17 18:33N 27°31' W 115°36'  
Track history (hours):
 
Tides and Currents Weather Stations Pressure Air Temp Water Temp Dewpoint Dewpoint Depression Visibility Wind Speed Wind Dir Waves Ship Positions

Tombarra

Last reported at 2016-Jul-23 17:17 UTC. Time now 2016-Jul-28 08:37 UTC.
Position N 48°32' W 126°52'.

Length 199 m; draft 8.8 m.

Type: Cargo ship. MMSI: 232971000.

Date/timePositionNaut miles runAvg speedWind from/ knotsBaromVisibWave heightAir tempDewpointWater temp
2016-Jul-23 17:17N 48°32' W 126°52'1115.2
2016-Jul-23 16:33N 48°32' W 126°35'1616.1
2016-Jul-23 15:33N 48°32' W 126°11'1616.1
2016-Jul-23 14:33N 48°32' W 125°47'1615.8
2016-Jul-23 13:34N 48°32' W 125°23'1414.1
2016-Jul-23 12:33N 48°32' W 125°02'1414.5
2016-Jul-23 11:34N 48°30' W 124°40'1514.5
2016-Jul-23 10:34N 48°24' W 124°20'1514.7
2016-Jul-23 09:33N 48°18' W 123°59'1515.1
2016-Jul-23 08:33N 48°15' W 123°37'1313.0
2016-Jul-23 07:34N 48°09' W 123°20'4414.8
2016-Jul-23 04:34N 47°43' W 122°26'1514.8
2016-Jul-23 03:34N 47°28' W 122°24'1111.2
2016-Jul-23 02:33N 47°17' W 122°25'2 1.9
2016-Jul-23 01:29N 47°16' W 122°23'0 0.0
2016-Jul-23 00:32N 47°16' W 122°23'0 0.0
2016-Jul-22 23:32N 47°16' W 122°23'0 0.0
2016-Jul-22 22:20N 47°16' W 122°23'0 0.0
2016-Jul-22 21:32N 47°16' W 122°23'0 0.0
2016-Jul-22 20:29N 47°16' W 122°23'0 0.0
2016-Jul-22 19:32N 47°16' W 122°23'0 0.0
2016-Jul-22 18:32N 47°16' W 122°23'0 0.0
2016-Jul-22 17:32N 47°16' W 122°23'0 0.0
2016-Jul-22 16:32N 47°16' W 122°23'0 0.0
2016-Jul-22 15:32N 47°16' W 122°23'0 0.0
2016-Jul-22 14:32N 47°16' W 122°23'0 0.2
2016-Jul-22 13:33N 47°16' W 122°23'5 4.6
2016-Jul-22 12:33N 47°18' W 122°28'1312.9
2016-Jul-22 11:34N 47°31' W 122°26'1716.8
2016-Jul-22 10:34N 47°48' W 122°27'1717.1
2016-Jul-22 09:34N 48°03' W 122°39'1716.8
2016-Jul-22 08:33N 48°12' W 123°01'1615.8
2016-Jul-22 07:33N 48°10' W 123°24'19 9.6
2016-Jul-22 05:33N 48°13' W 123°53'1313.3
2016-Jul-22 04:33N 48°18' W 124°11'1413.6
2016-Jul-22 03:33N 48°24' W 124°30'1413.6
2016-Jul-22 02:33N 48°28' W 124°49'1211.8
2016-Jul-22 01:32N 48°21' W 125°04'1212.6
2016-Jul-22 00:33N 48°10' W 125°10'1514.6
2016-Jul-21 23:33N 47°56' W 125°17'1414.4
2016-Jul-21 22:33N 47°42' W 125°20'1514.7
2016-Jul-21 21:32N 47°27' W 125°20'1514.7
2016-Jul-21 20:32N 47°12' W 125°20'1515.1
2016-Jul-21 19:33N 46°57' W 125°20'1515.2
2016-Jul-21 18:33N 46°42' W 125°20'1515.0
2016-Jul-21 17:33N 46°27' W 125°20'1515.0
2016-Jul-21 16:33N 46°12' W 125°20'1615.9
2016-Jul-21 15:33N 45°56' W 125°19'1616.0
2016-Jul-21 14:32N 45°40' W 125°20'1715.0
2016-Jul-21 13:23N 45°22' W 125°20'1315.3
2016-Jul-21 12:33N 45°10' W 125°20'1615.4
2016-Jul-21 11:33N 44°54' W 125°20'1515.3
2016-Jul-21 10:33N 44°39' W 125°20'1615.5
2016-Jul-21 09:33N 44°23' W 125°20'1615.6
2016-Jul-21 08:33N 44°08' W 125°20'1615.7
2016-Jul-21 07:34N 43°52' W 125°20'1715.5
2016-Jul-21 06:28N 43°35' W 125°20'3215.1
2016-Jul-21 04:22N 43°03' W 125°20'22115.6
2016-Jul-20 14:12N 39°23' W 124°54'3316.1
2016-Jul-20 12:09N 38°51' W 124°41'1016.1
2016-Jul-20 11:31N 38°42' W 124°37'1516.2
2016-Jul-20 10:33N 38°27' W 124°31'1616.4
2016-Jul-20 09:34N 38°11' W 124°25'1616.0
2016-Jul-20 08:33N 37°57' W 124°17'1616.0
2016-Jul-20 07:33N 37°44' W 124°04'1716.6
2016-Jul-20 06:34N 37°31' W 123°51'3316.3
2016-Jul-20 04:33N 37°05' W 123°25'1616.3
2016-Jul-20 03:33N 36°53' W 123°13'1615.6
2016-Jul-20 02:33N 36°40' W 123°01'1616.3
2016-Jul-20 01:33N 36°27' W 122°49'1616.1
2016-Jul-20 00:33N 36°15' W 122°36'1616.0
2016-Jul-19 23:33N 36°02' W 122°24'1615.7
2016-Jul-19 22:33N 35°50' W 122°12'1615.9
2016-Jul-19 21:33N 35°37' W 121°60'1615.7
2016-Jul-19 20:33N 35°25' W 121°48'1615.7
2016-Jul-19 19:33N 35°12' W 121°36'1615.9
2016-Jul-19 18:32N 34°60' W 121°24'1816.0
2016-Jul-19 17:26N 34°46' W 121°11'2915.3
2016-Jul-19 15:31N 34°25' W 120°46'1715.9
2016-Jul-19 14:27N 34°20' W 120°26'1516.3
2016-Jul-19 13:33N 34°17' W 120°09'1616.1
2016-Jul-19 12:33N 34°12' W 119°50'1515.4
2016-Jul-19 11:33N 34°08' W 119°32'1414.3
2016-Jul-19 10:33N 34°07' W 119°15'3 2.9
2016-Jul-19 09:31N 34°09' W 119°12'0 0.0
2016-Jul-19 08:31N 34°09' W 119°12'0 0.0
2016-Jul-19 07:31N 34°09' W 119°12'0 0.0
2016-Jul-19 04:31N 34°09' W 119°12'0 0.0
2016-Jul-19 03:31N 34°09' W 119°12'0 0.0
2016-Jul-19 02:31N 34°09' W 119°12'0 0.0
2016-Jul-19 01:31N 34°09' W 119°12'0 0.0
2016-Jul-19 00:31N 34°09' W 119°12'0 0.0
2016-Jul-18 23:33N 34°09' W 119°12'5 5.0
2016-Jul-18 22:33N 34°04' W 119°12'9 9.3
2016-Jul-18 21:33N 33°58' W 119°04'1512.1
2016-Jul-18 20:19N 33°44' W 118°55'1115.1
2016-Jul-18 19:34N 33°35' W 118°48'1514.8
2016-Jul-18 18:33N 33°22' W 118°39'1514.8
2016-Jul-18 17:33N 33°12' W 118°26'1515.0
2016-Jul-18 16:33N 33°02' W 118°12'1514.9
2016-Jul-18 15:34N 32°53' W 117°59'1514.9
2016-Jul-18 14:33N 32°44' W 117°45'1514.8
2016-Jul-18 13:33N 32°32' W 117°34'1616.1
2016-Jul-18 12:33N 32°16' W 117°28'1616.1
2016-Jul-18 11:32N 32°01' W 117°23'1615.9
2016-Jul-18 10:33N 31°46' W 117°18'1615.8
2016-Jul-18 09:34N 31°31' W 117°13'1413.8
2016-Jul-18 08:32N 31°17' W 117°08'1414.0
2016-Jul-18 07:33N 31°04' W 117°04'1717.1
2016-Jul-18 06:33N 30°47' W 116°59'1717.2
2016-Jul-18 05:33N 30°31' W 116°53'1717.5
2016-Jul-18 04:33N 30°14' W 116°47'3917.5
2016-Jul-18 02:20N 29°37' W 116°35'1417.4
2016-Jul-18 01:33N 29°23' W 116°31'1817.7
2016-Jul-18 00:33N 29°06' W 116°26'1817.9
2016-Jul-17 23:33N 28°49' W 116°19'1818.1
2016-Jul-17 22:33N 28°32' W 116°12'1817.8
2016-Jul-17 21:33N 28°15' W 116°06'1717.3
2016-Jul-17 20:34N 27°59' W 115°59'1717.4
2016-Jul-17 19:33N 27°45' W 115°48'1717.2
2016-Jul-17 18:33N 27°31' W 115°36'  

Dump ship's entire track history